Time;durP1;ratioP1;P1;durP2;ratioP2;P2;SDS_P1;SDS_P2;PMS_P1;PMS_P2;Temp;Humidity;BMP_temperature;BMP_pressure;BME280_temperature;BME280_humidity;BME280_pressure;Samples;Min_cycle;Max_cycle;Signal;HPM_P1;HPM_P2
2021/11/05 00:02:15;;;;;;;37.10;19.30;;;7.40;99.30;;;;;;5093197;28;20445;-78
2021/11/05 00:04:42;;;;;;;33.60;18.73;;;7.30;99.30;;;;;;5093152;28;20195;-75
2021/11/05 00:07:08;;;;;;;43.80;21.90;;;7.30;99.40;;;;;;5095391;28;20848;-77
2021/11/05 00:09:34;;;;;;;30.77;18.77;;;7.30;99.30;;;;;;5076594;28;20263;-76
2021/11/05 00:12:00;;;;;;;39.47;20.37;;;7.30;99.30;;;;;;5092396;28;20499;-78
2021/11/05 00:14:25;;;;;;;41.93;20.63;;;7.30;99.40;;;;;;5093330;28;20738;-77
2021/11/05 00:16:51;;;;;;;40.77;20.87;;;7.30;99.30;;;;;;5092050;28;20176;-75
2021/11/05 00:19:17;;;;;;;36.70;20.83;;;7.30;99.40;;;;;;5092173;28;20172;-77
2021/11/05 00:21:42;;;;;;;41.77;21.50;;;7.30;99.50;;;;;;5092752;28;20271;-77
2021/11/05 00:24:08;;;;;;;42.10;21.00;;;7.30;99.60;;;;;;5094483;28;20168;-76
2021/11/05 00:26:34;;;;;;;36.40;20.57;;;7.40;99.70;;;;;;5092756;28;20191;-76
2021/11/05 00:29:00;;;;;;;40.10;19.67;;;7.40;99.60;;;;;;5073917;28;20165;-76
2021/11/05 00:31:26;;;;;;;36.20;19.50;;;7.40;99.50;;;;;;5075004;28;20433;-76
2021/11/05 00:33:52;;;;;;;34.37;17.93;;;7.40;99.50;;;;;;5092233;28;20422;-77
2021/11/05 00:36:18;;;;;;;44.67;22.10;;;7.40;99.60;;;;;;5091322;28;20649;-76
2021/11/05 00:38:45;;;;;;;33.77;19.10;;;7.40;99.60;;;;;;5073779;28;20434;-76
2021/11/05 00:41:13;;;;;;;34.27;18.93;;;7.40;99.70;;;;;;5073299;28;20172;-78
2021/11/05 00:43:39;;;;;;;45.03;21.03;;;7.40;99.60;;;;;;5093876;28;20776;-77
2021/11/05 00:46:05;;;;;;;39.17;20.07;;;7.40;99.60;;;;;;5093163;28;20446;-77
2021/11/05 00:48:31;;;;;;;37.40;17.77;;;7.40;99.60;;;;;;5092366;28;20395;-76
2021/11/05 00:50:57;;;;;;;37.20;20.00;;;7.40;99.70;;;;;;5074628;28;20207;-77
2021/11/05 00:53:23;;;;;;;37.80;19.87;;;7.50;99.70;;;;;;5101342;28;20430;-77
2021/11/05 00:55:49;;;;;;;37.00;18.20;;;7.50;99.70;;;;;;5075812;28;20422;-78
2021/11/05 00:58:16;;;;;;;34.17;19.23;;;7.50;99.50;;;;;;5092659;28;20169;-78
2021/11/05 01:00:42;;;;;;;42.43;20.60;;;7.60;99.50;;;;;;5074541;28;20808;-76
2021/11/05 01:03:08;;;;;;;40.87;19.90;;;7.60;99.50;;;;;;5092467;28;20449;-76
2021/11/05 01:05:34;;;;;;;46.30;21.70;;;7.60;99.40;;;;;;5099641;28;20474;-77
2021/11/05 01:08:01;;;;;;;33.20;18.70;;;7.70;99.40;;;;;;5095214;28;20195;-75
2021/11/05 01:10:27;;;;;;;38.03;21.13;;;7.70;99.30;;;;;;5092179;28;20440;-77
2021/11/05 01:12:53;;;;;;;39.53;22.20;;;7.80;99.30;;;;;;5092759;28;20433;-75
2021/11/05 01:15:20;;;;;;;38.80;20.73;;;7.80;99.20;;;;;;5092055;28;20872;-75
2021/11/05 01:17:45;;;;;;;45.83;23.67;;;7.80;99.20;;;;;;5074009;28;20268;-77
2021/11/05 01:20:15;;;;;;;41.07;23.10;;;7.80;99.10;;;;;;5091260;28;20609;-77
2021/11/05 01:22:41;;;;;;;48.10;21.97;;;7.90;99.20;;;;;;5091840;28;20472;-77
2021/11/05 01:25:08;;;;;;;53.57;24.53;;;7.90;99.10;;;;;;5091901;28;20399;-77
2021/11/05 01:27:34;;;;;;;49.07;23.90;;;7.90;99.10;;;;;;5091914;28;20562;-77
2021/11/05 01:30:00;;;;;;;44.57;24.37;;;7.90;99.10;;;;;;5093923;28;20402;-76
2021/11/05 01:32:26;;;;;;;39.50;21.10;;;7.90;99.00;;;;;;5094644;28;20188;-77
2021/11/05 01:34:53;;;;;;;41.00;22.87;;;8.00;99.00;;;;;;5112005;28;20156;-75
2021/11/05 01:37:19;;;;;;;40.77;21.63;;;8.00;99.00;;;;;;5109169;28;20742;-76
2021/11/05 01:39:44;;;;;;;46.00;21.17;;;8.00;99.00;;;;;;5094458;28;20444;-76
2021/11/05 01:42:10;;;;;;;41.73;21.50;;;8.00;98.90;;;;;;5090887;28;20432;-76
2021/11/05 01:44:36;;;;;;;41.00;22.77;;;8.00;98.90;;;;;;5090829;28;20550;-78
2021/11/05 01:47:02;;;;;;;42.13;20.60;;;8.00;98.90;;;;;;5090980;28;20449;-78
2021/11/05 01:49:28;;;;;;;46.27;23.67;;;8.00;98.90;;;;;;5073604;28;20168;-76
2021/11/05 01:51:55;;;;;;;45.70;23.50;;;8.00;98.90;;;;;;5076064;28;20521;-76
2021/11/05 01:54:21;;;;;;;50.43;25.20;;;8.00;98.90;;;;;;5077065;28;20171;-76
2021/11/05 01:56:48;;;;;;;48.23;24.10;;;8.10;99.00;;;;;;5094943;28;20432;-76
2021/11/05 01:59:35;;;;;;;46.90;23.03;;;8.10;98.90;;;;;;5094736;28;20491;-76
2021/11/05 02:02:04;;;;;;;45.17;24.03;;;8.10;98.90;;;;;;5094801;28;20545;-76
2021/11/05 02:04:30;;;;;;;51.37;25.80;;;8.10;98.80;;;;;;5095459;28;20398;-75
2021/11/05 02:06:57;;;;;;;48.07;22.43;;;8.10;98.80;;;;;;5075599;28;20465;-75
2021/11/05 02:09:25;;;;;;;45.63;22.43;;;8.10;98.80;;;;;;5059182;28;20488;-77
2021/11/05 02:11:54;;;;;;;49.50;24.50;;;8.10;98.80;;;;;;5094054;28;20842;-76
2021/11/05 02:14:22;;;;;;;48.23;23.60;;;8.10;98.80;;;;;;5095516;28;20494;-77
2021/11/05 02:16:52;;;;;;;45.30;23.97;;;8.10;98.70;;;;;;5078241;28;20479;-76
2021/11/05 02:19:20;;;;;;;47.33;23.87;;;8.10;98.70;;;;;;5077803;28;20438;-76
2021/11/05 02:21:48;;;;;;;51.60;24.40;;;8.10;98.70;;;;;;5093663;28;20443;-74
2021/11/05 02:24:16;;;;;;;37.13;21.77;;;8.10;98.70;;;;;;5093653;28;20457;-76
2021/11/05 02:26:43;;;;;;;49.50;21.33;;;8.10;98.70;;;;;;5075400;28;21212;-75
2021/11/05 02:29:10;;;;;;;44.73;22.20;;;8.10;98.70;;;;;;5093413;28;20394;-76
2021/11/05 02:31:35;;;;;;;49.90;23.53;;;8.10;98.80;;;;;;5074365;28;20413;-75
2021/11/05 02:34:02;;;;;;;45.53;21.80;;;8.10;98.70;;;;;;5093453;28;20411;-75
2021/11/05 02:36:28;;;;;;;46.17;24.23;;;8.10;98.70;;;;;;5092170;28;20881;-75
2021/11/05 02:38:54;;;;;;;38.50;21.10;;;8.10;98.80;;;;;;5057193;28;20459;-76
2021/11/05 02:41:20;;;;;;;48.47;23.53;;;8.10;98.90;;;;;;5092598;28;20416;-77
2021/11/05 02:43:47;;;;;;;47.37;24.17;;;8.10;98.80;;;;;;5075710;28;20484;-76
2021/11/05 02:46:13;;;;;;;53.27;26.00;;;8.10;98.80;;;;;;5075105;28;20382;-76
2021/11/05 02:48:39;;;;;;;47.77;22.10;;;8.10;98.90;;;;;;5093319;28;20398;-76
2021/11/05 02:51:04;;;;;;;47.23;23.13;;;8.20;99.10;;;;;;5074151;28;20179;-76
2021/11/05 02:53:30;;;;;;;46.27;23.93;;;8.20;98.90;;;;;;5074656;28;20426;-76
2021/11/05 02:55:56;;;;;;;46.80;23.77;;;8.20;98.90;;;;;;5092871;28;20416;-76
2021/11/05 02:58:23;;;;;;;47.13;21.10;;;8.20;98.90;;;;;;5074771;28;20533;-76
2021/11/05 03:00:49;;;;;;;54.27;24.53;;;8.20;98.90;;;;;;5091393;28;20468;-76
2021/11/05 03:03:16;;;;;;;49.93;23.30;;;8.20;98.90;;;;;;5074286;28;20503;-75
2021/11/05 03:05:43;;;;;;;48.77;25.13;;;8.20;98.90;;;;;;5075174;28;20438;-75
2021/11/05 03:08:10;;;;;;;50.90;25.50;;;8.20;99.30;;;;;;5092414;28;21080;-75
2021/11/05 03:10:36;;;;;;;59.83;27.63;;;8.20;98.90;;;;;;5092429;28;20418;-75
2021/11/05 03:13:03;;;;;;;52.90;25.40;;;8.20;99.00;;;;;;5092075;28;20410;-75
2021/11/05 03:15:29;;;;;;;47.80;25.50;;;8.20;99.00;;;;;;5074221;28;20826;-75
2021/11/05 03:17:57;;;;;;;63.90;24.93;;;8.20;99.00;;;;;;5092607;28;20741;-75
2021/11/05 03:20:23;;;;;;;53.00;24.53;;;8.20;99.10;;;;;;5093641;28;20851;-75
2021/11/05 03:22:48;;;;;;;60.40;26.80;;;8.20;99.00;;;;;;5099025;28;20469;-76
2021/11/05 03:25:15;;;;;;;64.93;29.27;;;8.20;99.00;;;;;;5095296;28;20173;-76
2021/11/05 03:27:42;;;;;;;59.57;26.53;;;8.20;99.10;;;;;;5077052;28;20172;-76
2021/11/05 03:30:10;;;;;;;59.57;29.17;;;8.20;99.00;;;;;;5094403;28;20429;-76
2021/11/05 03:32:38;;;;;;;54.37;26.00;;;8.20;99.10;;;;;;5092759;28;20449;-76
2021/11/05 03:35:06;;;;;;;52.43;23.73;;;8.20;99.10;;;;;;5092995;28;20508;-76
2021/11/05 03:37:33;;;;;;;45.20;21.70;;;8.20;99.10;;;;;;5091487;28;20489;-75
2021/11/05 03:39:59;;;;;;;50.33;22.10;;;8.20;99.00;;;;;;5055593;28;20421;-75
2021/11/05 03:42:25;;;;;;;48.90;22.57;;;8.20;99.10;;;;;;5091131;28;20423;-75
2021/11/05 03:44:50;;;;;;;48.50;22.80;;;8.20;99.10;;;;;;5092281;28;20411;-75
2021/11/05 03:47:16;;;;;;;42.73;22.17;;;8.20;99.10;;;;;;5089197;28;20188;-76
2021/11/05 03:49:42;;;;;;;46.27;22.23;;;8.20;99.10;;;;;;5092227;28;20211;-76
2021/11/05 03:52:07;;;;;;;44.77;22.37;;;8.20;99.00;;;;;;5072817;28;20234;-75
2021/11/05 03:54:33;;;;;;;51.97;21.40;;;8.20;99.00;;;;;;5091769;28;20163;-76
2021/11/05 03:56:59;;;;;;;48.20;20.57;;;8.10;98.90;;;;;;5091576;28;20172;-75
2021/11/05 03:59:24;;;;;;;51.10;22.70;;;8.10;99.00;;;;;;5091565;28;20406;-75
2021/11/05 04:01:50;;;;;;;43.63;20.43;;;8.10;99.10;;;;;;5091423;28;20185;-76
2021/11/05 04:04:16;;;;;;;48.10;20.90;;;8.10;99.10;;;;;;5091905;28;20661;-76
2021/11/05 04:06:42;;;;;;;43.97;21.90;;;8.10;99.10;;;;;;5072943;28;20188;-76
2021/11/05 04:09:08;;;;;;;38.73;20.23;;;8.10;99.10;;;;;;5092059;28;20459;-76
2021/11/05 04:11:34;;;;;;;38.90;17.60;;;8.10;99.00;;;;;;5092299;28;20195;-75
2021/11/05 04:13:59;;;;;;;39.57;18.00;;;8.10;99.00;;;;;;5092696;28;20195;-75
2021/11/05 04:16:25;;;;;;;43.93;19.33;;;8.10;98.90;;;;;;5074877;28;20172;-75
2021/11/05 04:18:51;;;;;;;36.17;18.30;;;8.10;98.90;;;;;;5092730;28;20172;-75
2021/11/05 04:21:17;;;;;;;40.57;16.33;;;8.10;98.80;;;;;;5090700;28;20164;-75
2021/11/05 04:23:43;;;;;;;37.70;18.43;;;8.10;98.70;;;;;;5091578;28;20261;-76
2021/11/05 04:26:09;;;;;;;37.07;18.47;;;8.20;98.70;;;;;;5093526;28;20196;-75
2021/11/05 04:28:35;;;;;;;33.67;16.07;;;8.20;98.60;;;;;;5096787;28;20494;-74
2021/11/05 04:31:01;;;;;;;31.53;17.60;;;8.20;98.50;;;;;;5096100;28;20413;-76
2021/11/05 04:33:31;;;;;;;35.40;18.30;;;8.20;98.40;;;;;;5092906;28;20725;-75
2021/11/05 04:35:57;;;;;;;40.00;18.77;;;8.20;98.30;;;;;;5092054;28;20414;-75
2021/11/05 04:38:23;;;;;;;36.53;17.67;;;8.20;98.30;;;;;;5090536;28;20776;-76
2021/11/05 04:40:49;;;;;;;34.20;15.80;;;8.20;98.30;;;;;;5089546;28;20421;-75
2021/11/05 04:43:14;;;;;;;39.37;19.47;;;8.20;98.30;;;;;;5091203;28;20634;-75
2021/11/05 04:45:40;;;;;;;37.63;18.27;;;8.30;98.30;;;;;;5091176;28;20195;-75
2021/11/05 04:48:06;;;;;;;43.93;19.27;;;8.30;98.20;;;;;;5090767;28;20247;-75
2021/11/05 04:50:32;;;;;;;42.00;19.63;;;8.30;98.20;;;;;;5090853;28;20209;-75
2021/11/05 04:52:58;;;;;;;40.70;18.13;;;8.30;98.60;;;;;;5090540;28;20261;-76
2021/11/05 04:55:24;;;;;;;43.90;20.30;;;8.30;98.30;;;;;;5090733;28;20406;-76
2021/11/05 04:57:50;;;;;;;46.50;18.17;;;8.30;98.30;;;;;;5090573;28;20425;-76
2021/11/05 05:00:19;;;;;;;34.03;16.50;;;8.30;98.20;;;;;;5090938;28;20972;-75
2021/11/05 05:02:44;;;;;;;42.43;18.40;;;8.30;98.20;;;;;;5090348;28;20445;-76
2021/11/05 05:05:11;;;;;;;42.70;18.30;;;8.30;98.30;;;;;;5074742;28;20418;-76
2021/11/05 05:07:36;;;;;;;31.33;15.97;;;8.30;98.30;;;;;;5094394;28;20188;-76
2021/11/05 05:10:03;;;;;;;36.17;16.07;;;8.30;98.30;;;;;;5111589;28;20463;-73
2021/11/05 05:12:29;;;;;;;38.83;16.37;;;8.20;98.30;;;;;;5108637;28;20212;-74
2021/11/05 05:14:55;;;;;;;35.43;16.80;;;8.20;98.40;;;;;;5093922;28;20406;-76
2021/11/05 05:17:20;;;;;;;40.17;16.77;;;8.20;98.40;;;;;;5072525;28;20225;-76
2021/11/05 05:19:46;;;;;;;37.80;18.53;;;8.20;98.40;;;;;;5090499;28;20167;-75
2021/11/05 05:22:11;;;;;;;40.33;15.80;;;8.20;98.40;;;;;;5090600;28;20196;-76
2021/11/05 05:24:37;;;;;;;35.40;16.87;;;8.20;98.40;;;;;;5091147;28;20171;-77
2021/11/05 05:27:03;;;;;;;35.90;15.83;;;8.20;98.40;;;;;;5059575;28;20287;-75
2021/11/05 05:29:29;;;;;;;33.50;15.80;;;8.20;98.40;;;;;;5097651;28;20175;-75
2021/11/05 05:31:55;;;;;;;39.70;18.37;;;8.20;98.40;;;;;;5098587;28;20414;-75
2021/11/05 05:34:20;;;;;;;35.20;16.70;;;8.20;98.50;;;;;;5094659;28;20226;-75
2021/11/05 05:36:46;;;;;;;37.80;16.73;;;8.20;98.50;;;;;;5093983;28;20210;-75
2021/11/05 05:39:12;;;;;;;36.63;15.30;;;8.20;98.50;;;;;;5094809;28;20164;-75
2021/11/05 05:41:38;;;;;;;33.23;16.00;;;8.20;98.40;;;;;;5093965;28;20172;-78
2021/11/05 05:44:04;;;;;;;37.33;16.80;;;8.20;98.40;;;;;;5094180;28;20418;-74
2021/11/05 05:46:30;;;;;;;35.20;14.30;;;8.20;98.40;;;;;;5094375;28;20958;-75
2021/11/05 05:48:56;;;;;;;34.10;15.97;;;8.20;98.40;;;;;;5094505;28;20399;-75
2021/11/05 05:51:22;;;;;;;40.67;15.97;;;8.20;98.40;;;;;;5076266;28;21221;-76
2021/11/05 05:53:48;;;;;;;33.97;14.63;;;8.20;98.40;;;;;;5094866;28;20225;-76
2021/11/05 05:56:14;;;;;;;34.17;17.13;;;8.20;98.40;;;;;;5069743;28;20179;-75
2021/11/05 05:58:40;;;;;;;32.53;15.10;;;8.20;98.40;;;;;;5071689;28;20935;-75
2021/11/05 06:01:05;;;;;;;35.93;14.87;;;8.20;98.40;;;;;;5079360;28;20750;-75
2021/11/05 06:03:31;;;;;;;30.13;14.37;;;8.30;98.50;;;;;;5091793;28;20460;-75
2021/11/05 06:05:57;;;;;;;35.13;13.97;;;8.20;98.40;;;;;;5082029;28;20299;-75
2021/11/05 06:08:23;;;;;;;31.40;14.37;;;8.30;98.30;;;;;;5070882;28;20254;-75
2021/11/05 06:10:49;;;;;;;30.17;14.97;;;8.30;98.30;;;;;;5089062;28;20200;-75
2021/11/05 06:13:15;;;;;;;30.57;14.57;;;8.30;98.30;;;;;;5072754;28;20279;-75
2021/11/05 06:15:40;;;;;;;35.23;15.57;;;8.20;98.20;;;;;;5091404;28;21148;-75
2021/11/05 06:18:06;;;;;;;27.20;14.70;;;8.30;98.60;;;;;;5054778;28;20256;-76
2021/11/05 06:20:32;;;;;;;32.93;15.47;;;8.30;98.20;;;;;;5085234;28;20175;-76
2021/11/05 06:22:57;;;;;;;31.00;14.33;;;8.30;98.10;;;;;;5092803;28;20200;-74
2021/11/05 06:25:23;;;;;;;38.73;16.37;;;8.30;98.10;;;;;;5093796;28;20176;-75
2021/11/05 06:27:49;;;;;;;32.90;17.33;;;8.30;98.50;;;;;;5066387;28;20268;-75
2021/11/05 06:30:15;;;;;;;35.00;15.53;;;8.30;98.10;;;;;;5085289;28;20169;-76
2021/11/05 06:32:41;;;;;;;33.37;14.63;;;8.30;98.10;;;;;;5085591;28;20438;-76
2021/11/05 06:35:09;;;;;;;30.53;16.00;;;8.30;98.20;;;;;;5090917;28;20458;-77
2021/11/05 06:37:37;;;;;;;34.50;15.53;;;8.30;98.20;;;;;;5088787;28;20418;-75
2021/11/05 06:40:07;;;;;;;35.40;14.73;;;8.30;98.20;;;;;;5094936;28;20883;-76
2021/11/05 06:42:34;;;;;;;37.23;16.20;;;8.30;98.20;;;;;;5085127;28;20491;-76
2021/11/05 06:44:59;;;;;;;35.73;16.43;;;8.30;98.20;;;;;;5053738;28;20502;-76
2021/11/05 06:47:25;;;;;;;37.73;18.93;;;8.30;98.20;;;;;;5074479;28;21101;-76
2021/11/05 06:49:51;;;;;;;32.90;19.37;;;8.30;98.10;;;;;;5086229;28;20534;-76
2021/11/05 06:52:16;;;;;;;34.80;20.10;;;8.30;98.00;;;;;;5092345;28;20208;-76
2021/11/05 06:54:42;;;;;;;44.10;22.00;;;8.30;98.00;;;;;;5091260;28;20196;-75
2021/11/05 06:57:08;;;;;;;35.57;21.40;;;8.30;97.80;;;;;;5058173;28;20587;-75
2021/11/05 06:59:35;;;;;;;45.67;23.23;;;8.30;97.90;;;;;;5091688;28;20530;-76
2021/11/05 07:02:03;;;;;;;39.67;22.50;;;8.30;97.80;;;;;;5089294;28;20454;-75
2021/11/05 07:04:29;;;;;;;36.93;21.27;;;8.30;97.80;;;;;;5053578;28;20435;-75
2021/11/05 07:06:58;;;;;;;42.87;22.47;;;8.30;97.70;;;;;;5072261;28;20470;-76
2021/11/05 07:09:24;;;;;;;41.30;22.30;;;8.30;97.60;;;;;;5076094;28;20217;-76
2021/11/05 07:11:50;;;;;;;36.90;21.53;;;8.30;97.50;;;;;;5092337;28;20422;-76
2021/11/05 07:14:17;;;;;;;44.70;23.87;;;8.30;97.40;;;;;;5093493;28;20756;-76
2021/11/05 07:16:43;;;;;;;36.63;22.13;;;8.30;97.30;;;;;;5092657;28;20483;-76
2021/11/05 07:19:09;;;;;;;36.87;22.67;;;8.30;97.30;;;;;;5092588;28;20418;-76
2021/11/05 07:21:36;;;;;;;42.90;23.97;;;8.40;97.20;;;;;;5062807;28;20426;-76
2021/11/05 07:24:02;;;;;;;36.50;23.03;;;8.30;97.10;;;;;;5092489;28;20681;-76
2021/11/05 07:26:34;;;;;;;40.27;21.83;;;8.40;97.10;;;;;;5100639;28;20986;-79
2021/11/05 07:29:06;;;;;;;44.50;23.60;;;8.40;97.00;;;;;;5102715;28;20407;-84
2021/11/05 07:31:33;;;;;;;37.73;21.60;;;8.30;97.00;;;;;;5095334;28;20494;-81
2021/11/05 07:33:59;;;;;;;43.50;23.23;;;8.40;96.90;;;;;;5069923;28;20418;-82
2021/11/05 07:36:26;;;;;;;45.00;23.77;;;8.40;96.90;;;;;;5091548;28;20430;-80
2021/11/05 07:38:52;;;;;;;49.27;23.63;;;8.40;96.80;;;;;;5076132;28;20422;-81
2021/11/05 07:41:19;;;;;;;40.50;23.87;;;8.40;96.80;;;;;;5102850;28;20763;-79
2021/11/05 07:43:45;;;;;;;42.30;23.67;;;8.30;96.60;;;;;;5074265;28;20439;-80
2021/11/05 07:46:11;;;;;;;45.17;25.50;;;8.40;96.80;;;;;;5054749;28;20467;-81
2021/11/05 07:48:36;;;;;;;40.20;23.07;;;8.40;96.70;;;;;;5090324;28;20406;-80
2021/11/05 07:51:02;;;;;;;41.03;21.57;;;8.40;96.40;;;;;;5101612;28;20214;-81
2021/11/05 07:53:28;;;;;;;44.40;22.00;;;8.40;96.40;;;;;;5090562;28;20254;-80
2021/11/05 07:55:53;;;;;;;39.57;22.10;;;8.40;96.40;;;;;;5102009;28;20183;-80
2021/11/05 07:58:19;;;;;;;33.57;20.30;;;8.40;96.20;;;;;;5103712;28;20169;-80
2021/11/05 08:00:45;;;;;;;39.23;22.07;;;8.40;96.30;;;;;;5104188;28;20188;-80
2021/11/05 08:03:10;;;;;;;68.10;32.70;;;8.40;96.20;;;;;;5081093;28;20215;-82
2021/11/05 08:05:36;;;;;;;45.80;23.43;;;8.30;96.10;;;;;;5081269;28;20374;-80
2021/11/05 08:08:02;;;;;;;39.20;22.90;;;8.40;96.30;;;;;;5104953;28;20161;-80
2021/11/05 08:10:28;;;;;;;38.90;22.23;;;8.40;96.40;;;;;;5104958;28;20164;-80
2021/11/05 08:12:53;;;;;;;47.57;25.43;;;8.40;96.20;;;;;;5085517;28;20189;-80
2021/11/05 08:15:21;;;;;;;40.70;22.53;;;8.40;96.30;;;;;;5105074;28;20168;-80
2021/11/05 08:17:48;;;;;;;41.73;22.50;;;8.50;96.20;;;;;;5107987;28;20228;-80
2021/11/05 08:20:14;;;;;;;42.30;23.47;;;8.50;96.10;;;;;;5087543;28;20522;-79
2021/11/05 08:22:41;;;;;;;44.50;23.97;;;8.60;96.00;;;;;;5104382;28;20550;-81
2021/11/05 08:25:08;;;;;;;46.17;22.17;;;8.70;96.10;;;;;;5103904;28;20458;-80
2021/11/05 08:27:35;;;;;;;43.43;24.17;;;8.80;95.80;;;;;;5088475;28;20457;-80
2021/11/05 08:30:08;;;;;;;49.00;25.00;;;8.80;95.40;;;;;;5082683;28;20431;-80
2021/11/05 08:32:34;;;;;;;50.27;24.70;;;8.80;95.30;;;;;;5102637;28;20430;-81
2021/11/05 08:35:00;;;;;;;40.33;23.87;;;8.80;95.40;;;;;;5102967;28;20902;-81
2021/11/05 08:37:25;;;;;;;49.83;25.30;;;8.80;95.50;;;;;;5085261;28;20478;-79
2021/11/05 08:39:52;;;;;;;49.23;24.47;;;8.90;95.60;;;;;;5079504;28;20185;-79
2021/11/05 08:42:18;;;;;;;38.07;22.27;;;8.90;95.40;;;;;;5085712;28;20196;-80
2021/11/05 08:44:44;;;;;;;44.83;24.23;;;8.90;95.40;;;;;;5092856;28;20529;-80
2021/11/05 08:47:11;;;;;;;48.40;26.27;;;8.90;95.40;;;;;;5109036;28;20982;-79
2021/11/05 08:49:37;;;;;;;51.67;23.40;;;9.00;95.50;;;;;;5099067;28;20180;-80
2021/11/05 08:52:03;;;;;;;40.90;22.50;;;9.00;95.60;;;;;;5101890;28;20438;-80
2021/11/05 08:54:29;;;;;;;40.37;24.73;;;9.00;95.40;;;;;;5105006;28;20164;-80
2021/11/05 08:56:55;;;;;;;42.40;22.50;;;9.00;95.40;;;;;;5102455;28;20470;-80
2021/11/05 08:59:22;;;;;;;44.43;23.77;;;9.10;95.40;;;;;;5104159;28;20176;-80
2021/11/05 09:01:49;;;;;;;47.80;24.17;;;9.10;95.40;;;;;;5111632;28;20485;-81
2021/11/05 09:04:16;;;;;;;33.33;20.57;;;9.20;95.50;;;;;;5080625;28;20422;-80
2021/11/05 09:06:46;;;;;;;36.00;20.93;;;9.30;95.40;;;;;;5091312;28;20450;-80
2021/11/05 09:09:14;;;;;;;55.57;27.67;;;9.40;95.30;;;;;;5093894;28;20452;-79
2021/11/05 09:11:40;;;;;;;35.90;21.67;;;9.40;95.00;;;;;;5090165;28;20426;-80
2021/11/05 09:14:06;;;;;;;48.37;27.67;;;9.50;94.90;;;;;;5113845;28;20414;-81
2021/11/05 09:16:32;;;;;;;38.23;21.00;;;9.50;95.20;;;;;;5115872;28;20198;-82
2021/11/05 09:19:01;;;;;;;38.83;17.77;;;9.60;95.70;;;;;;5115514;28;20424;-80
2021/11/05 09:21:27;;;;;;;39.90;20.90;;;9.60;95.00;;;;;;5111148;28;20152;-80
2021/11/05 09:23:53;;;;;;;39.93;21.17;;;9.70;94.90;;;;;;5093518;28;20471;-81
2021/11/05 09:26:21;;;;;;;34.70;20.77;;;9.80;94.90;;;;;;5114532;28;20280;-81
2021/11/05 09:28:47;;;;;;;36.83;21.03;;;9.90;94.80;;;;;;5115909;28;20176;-80
2021/11/05 09:31:13;;;;;;;31.40;18.60;;;10.00;94.20;;;;;;5113955;28;20408;-80
2021/11/05 09:33:39;;;;;;;33.23;19.37;;;10.10;93.70;;;;;;5097232;28;20177;-80
2021/11/05 09:36:05;;;;;;;46.00;24.83;;;10.10;93.40;;;;;;5088812;28;20418;-80
2021/11/05 09:38:31;;;;;;;29.17;19.83;;;10.10;93.60;;;;;;5107200;28;20449;-79
2021/11/05 09:40:56;;;;;;;31.57;19.50;;;10.10;92.90;;;;;;5114022;28;20469;-80
2021/11/05 09:43:22;;;;;;;38.30;19.20;;;10.10;93.40;;;;;;5117290;28;20172;-80
2021/11/05 09:45:48;;;;;;;34.80;17.80;;;10.10;93.00;;;;;;5108151;28;20480;-80
2021/11/05 09:48:14;;;;;;;29.80;19.07;;;10.00;93.00;;;;;;5088968;28;20421;-80
2021/11/05 09:50:40;;;;;;;30.50;19.33;;;10.10;93.60;;;;;;5079424;28;20422;-80
2021/11/05 09:53:06;;;;;;;34.47;18.73;;;10.20;93.80;;;;;;5106448;28;20215;-80
2021/11/05 09:55:35;;;;;;;28.00;17.30;;;10.20;93.30;;;;;;5063908;28;20441;-82
2021/11/05 09:58:01;;;;;;;25.60;17.97;;;10.40;93.30;;;;;;5103801;28;20506;-81
2021/11/05 10:00:28;;;;;;;26.73;16.67;;;10.40;93.00;;;;;;5086364;28;20954;-82
2021/11/05 10:02:54;;;;;;;24.07;15.47;;;10.50;92.90;;;;;;5104996;28;20484;-81
2021/11/05 10:05:21;;;;;;;27.00;17.50;;;10.50;92.60;;;;;;5104446;28;20463;-81
2021/11/05 10:07:46;;;;;;;24.37;16.47;;;10.60;92.30;;;;;;5104940;28;20450;-82
2021/11/05 10:10:12;;;;;;;26.77;17.67;;;10.50;92.50;;;;;;5104983;28;20475;-82
2021/11/05 10:12:52;;;;;;;26.83;18.00;;;10.60;92.70;;;;;;5098273;28;20249;-82
2021/11/05 10:15:19;;;;;;;25.33;15.90;;;10.60;92.00;;;;;;5084978;28;20494;-82
2021/11/05 10:17:45;;;;;;;31.30;16.40;;;10.60;91.90;;;;;;5090426;28;20536;-81
2021/11/05 10:20:11;;;;;;;21.30;14.57;;;10.50;92.20;;;;;;5086029;28;20414;-82
2021/11/05 10:22:52;;;;;;;25.97;16.37;;;10.60;92.70;;;;;;5099778;28;20756;-81
2021/11/05 10:25:26;;;;;;;26.53;16.30;;;10.70;92.80;;;;;;5095557;28;20414;-81
2021/11/05 10:28:23;;;;;;;27.30;15.50;;;10.80;92.40;;;;;;5103445;28;20471;-82
2021/11/05 10:31:01;;;;;;;23.77;14.70;;;10.90;91.90;;;;;;5107813;28;20426;-82
2021/11/05 10:33:42;;;;;;;34.97;15.40;;;11.00;91.80;;;;;;5086254;28;20994;-82
2021/11/05 10:36:12;;;;;;;23.30;16.20;;;11.00;91.60;;;;;;5100174;28;20489;-80
2021/11/05 10:38:45;;;;;;;35.90;19.47;;;11.00;91.60;;;;;;5106191;28;20414;-81
2021/11/05 10:41:15;;;;;;;24.17;14.77;;;11.10;91.40;;;;;;5105820;28;20478;-81
2021/11/05 10:43:45;;;;;;;25.87;16.80;;;11.20;91.40;;;;;;5095786;28;20500;-81
2021/11/05 10:46:39;;;;;;;29.33;16.73;;;11.20;91.20;;;;;;5105497;28;20450;-81
2021/11/05 10:49:25;;;;;;;19.10;14.57;;;11.20;91.10;;;;;;5095144;28;20462;-81
2021/11/05 10:51:52;;;;;;;20.00;13.50;;;11.20;91.00;;;;;;5068079;28;20492;-81
2021/11/05 10:54:17;;;;;;;18.80;13.30;;;11.20;91.10;;;;;;5106753;28;20386;-83
2021/11/05 10:56:45;;;;;;;18.50;12.63;;;11.30;91.10;;;;;;5105774;28;20996;-80
2021/11/05 10:59:11;;;;;;;21.50;12.70;;;11.20;90.90;;;;;;5096447;28;20177;-83
2021/11/05 11:01:40;;;;;;;20.73;12.73;;;11.20;90.60;;;;;;5086756;28;20489;-81
2021/11/05 11:04:08;;;;;;;15.93;11.73;;;11.30;91.10;;;;;;5102383;28;20466;-82
2021/11/05 11:06:45;;;;;;;20.97;13.10;;;11.30;90.90;;;;;;5088176;28;20464;-81
2021/11/05 11:09:13;;;;;;;21.67;10.07;;;11.30;91.00;;;;;;5097857;28;20423;-81
2021/11/05 11:11:42;;;;;;;19.80;10.47;;;11.30;90.80;;;;;;5084216;28;20529;-82
2021/11/05 11:14:17;;;;;;;16.40;11.33;;;11.30;90.70;;;;;;5084479;28;20399;-82
2021/11/05 11:17:00;;;;;;;15.97;9.80;;;11.40;90.70;;;;;;5086949;28;20406;-83
2021/11/05 11:19:36;;;;;;;14.80;10.23;;;11.40;90.60;;;;;;5096612;28;20420;-83
2021/11/05 11:22:07;;;;;;;19.33;10.83;;;11.50;90.60;;;;;;5091348;28;20475;-83
2021/11/05 11:24:36;;;;;;;13.97;10.73;;;11.50;90.60;;;;;;5093313;28;20403;-81
2021/11/05 11:27:06;;;;;;;17.53;11.07;;;11.70;90.70;;;;;;5090515;28;20454;-81
2021/11/05 11:29:35;;;;;;;14.20;9.60;;;11.80;90.30;;;;;;5091365;28;20407;-82
2021/11/05 11:32:04;;;;;;;14.83;10.13;;;11.80;89.40;;;;;;5090857;28;20429;-83
2021/11/05 11:34:29;;;;;;;14.53;10.93;;;11.80;89.50;;;;;;5092201;28;20407;-81
2021/11/05 11:36:58;;;;;;;17.07;10.47;;;11.80;90.00;;;;;;5070330;28;20411;-80
2021/11/05 11:39:26;;;;;;;17.53;10.43;;;11.80;90.30;;;;;;5083932;28;20429;-81
2021/11/05 11:41:54;;;;;;;18.13;11.63;;;11.80;90.60;;;;;;5084015;28;20506;-82
2021/11/05 11:44:25;;;;;;;14.60;9.33;;;12.00;91.20;;;;;;5085116;28;20407;-81
2021/11/05 11:47:06;;;;;;;14.87;9.43;;;12.10;90.50;;;;;;5085095;28;20478;-81
2021/11/05 11:49:38;;;;;;;14.90;9.47;;;12.20;90.40;;;;;;5084391;28;20427;-83
2021/11/05 11:52:29;;;;;;;17.47;9.30;;;12.20;90.20;;;;;;5082837;28;20495;-83
2021/11/05 11:55:10;;;;;;;14.67;8.87;;;12.30;89.50;;;;;;5083224;28;20399;-83
2021/11/05 11:57:36;;;;;;;16.20;10.83;;;12.10;89.80;;;;;;5067485;28;20881;-82
2021/11/05 12:00:20;;;;;;;13.80;8.43;;;12.10;89.90;;;;;;5066698;28;20426;-83
2021/11/05 12:03:00;;;;;;;12.93;8.53;;;12.00;89.40;;;;;;5082547;28;20205;-82
2021/11/05 12:05:32;;;;;;;10.13;7.50;;;11.90;89.70;;;;;;5066871;28;20470;-82
2021/11/05 12:08:17;;;;;;;12.63;7.97;;;11.80;90.20;;;;;;5066350;28;20427;-82
2021/11/05 12:10:47;;;;;;;13.50;6.93;;;11.80;90.40;;;;;;5084045;28;20544;-82
2021/11/05 12:13:32;;;;;;;12.90;7.90;;;11.80;90.50;;;;;;5084177;28;20424;-82
2021/11/05 12:16:13;;;;;;;13.83;7.07;;;11.80;90.50;;;;;;5091204;28;20419;-81
2021/11/05 12:18:58;;;;;;;17.93;11.70;;;11.80;90.50;;;;;;5090291;28;20415;-81
2021/11/05 12:21:35;;;;;;;21.10;10.60;;;11.90;90.60;;;;;;5085170;28;20407;-82
2021/11/05 12:24:16;;;;;;;14.30;7.83;;;11.90;90.70;;;;;;5087989;28;20399;-82
2021/11/05 12:27:07;;;;;;;40.03;24.50;;;12.00;90.30;;;;;;5084714;28;20451;-83
2021/11/05 12:29:33;;;;;;;14.87;8.20;;;12.10;90.40;;;;;;5083841;28;20498;-82
2021/11/05 12:32:01;;;;;;;10.50;8.53;;;12.20;89.40;;;;;;5083968;28;20415;-82
2021/11/05 12:34:35;;;;;;;8.60;5.73;;;12.20;88.90;;;;;;5084702;28;20165;-80
2021/11/05 12:37:02;;;;;;;12.47;7.27;;;12.10;88.70;;;;;;5090662;28;20417;-82
2021/11/05 12:39:33;;;;;;;16.30;8.00;;;12.00;89.00;;;;;;5092895;28;20392;-81